sensor_id;sensor_type;location;lat;lon;timestamp;pressure;altitude;pressure_sealevel;temperature;humidity
48630;BME280;34426;52.180;4.462;2023-11-19T00:01:02;100820.31;;;13.15;100.00
48630;BME280;34426;52.180;4.462;2023-11-19T00:03:31;100817.50;;;13.15;100.00
48630;BME280;34426;52.180;4.462;2023-11-19T00:06:01;100823.41;;;13.14;100.00
48630;BME280;34426;52.180;4.462;2023-11-19T00:08:26;100845.59;;;13.15;100.00
48630;BME280;34426;52.180;4.462;2023-11-19T00:10:52;100839.41;;;13.13;100.00
48630;BME280;34426;52.180;4.462;2023-11-19T00:13:18;100844.47;;;13.11;100.00
48630;BME280;34426;52.180;4.462;2023-11-19T00:15:46;100827.34;;;13.13;100.00
48630;BME280;34426;52.180;4.462;2023-11-19T00:18:17;100819.19;;;13.11;100.00
48630;BME280;34426;52.180;4.462;2023-11-19T00:20:43;100801.78;;;13.09;100.00
48630;BME280;34426;52.180;4.462;2023-11-19T00:23:09;100818.66;;;13.09;100.00
48630;BME280;34426;52.180;4.462;2023-11-19T00:25:41;100797.59;;;13.07;100.00
48630;BME280;34426;52.180;4.462;2023-11-19T00:28:07;100814.72;;;13.05;100.00
48630;BME280;34426;52.180;4.462;2023-11-19T00:30:33;100820.63;;;13.04;100.00
48630;BME280;34426;52.180;4.462;2023-11-19T00:32:59;100816.97;;;13.03;100.00
48630;BME280;34426;52.180;4.462;2023-11-19T00:35:26;100798.44;;;13.02;100.00
48630;BME280;34426;52.180;4.462;2023-11-19T00:37:54;100811.34;;;13.03;100.00
48630;BME280;34426;52.180;4.462;2023-11-19T00:40:21;100810.50;;;13.03;100.00
48630;BME280;34426;52.180;4.462;2023-11-19T00:42:47;100810.50;;;13.03;100.00
48630;BME280;34426;52.180;4.462;2023-11-19T00:45:13;100812.47;;;13.02;100.00
48630;BME280;34426;52.180;4.462;2023-11-19T00:47:48;100815.28;;;13.02;100.00
48630;BME280;34426;52.180;4.462;2023-11-19T00:50:14;100802.38;;;13.01;100.00
48630;BME280;34426;52.180;4.462;2023-11-19T00:52:43;100800.69;;;13.00;100.00
48630;BME280;34426;52.180;4.462;2023-11-19T00:55:11;100786.66;;;13.00;100.00
48630;BME280;34426;52.180;4.462;2023-11-19T00:57:41;100781.34;;;12.98;100.00
48630;BME280;34426;52.180;4.462;2023-11-19T01:00:07;100786.13;;;12.98;100.00
48630;BME280;34426;52.180;4.462;2023-11-19T01:02:33;100784.44;;;12.97;100.00
48630;BME280;34426;52.180;4.462;2023-11-19T01:05:02;100779.97;;;12.96;100.00
48630;BME280;34426;52.180;4.462;2023-11-19T01:07:27;100776.59;;;12.94;100.00
48630;BME280;34426;52.180;4.462;2023-11-19T01:09:53;100779.41;;;12.94;100.00
48630;BME280;34426;52.180;4.462;2023-11-19T01:12:21;100767.34;;;12.93;100.00
48630;BME280;34426;52.180;4.462;2023-11-19T01:14:48;100777.72;;;12.93;100.00
48630;BME280;34426;52.180;4.462;2023-11-19T01:17:14;100778.84;;;12.92;100.00
48630;BME280;34426;52.180;4.462;2023-11-19T01:19:40;100790.09;;;12.87;100.00
48630;BME280;34426;52.180;4.462;2023-11-19T01:22:08;100781.13;;;12.85;100.00
48630;BME280;34426;52.180;4.462;2023-11-19T01:24:35;100781.69;;;12.82;100.00
48630;BME280;34426;52.180;4.462;2023-11-19T01:27:01;100765.97;;;12.81;100.00
48630;BME280;34426;52.180;4.462;2023-11-19T01:29:27;100777.47;;;12.79;100.00
48630;BME280;34426;52.180;4.462;2023-11-19T01:31:54;100771.03;;;12.79;100.00
48630;BME280;34426;52.180;4.462;2023-11-19T01:34:20;100777.19;;;12.76;100.00
48630;BME280;34426;52.180;4.462;2023-11-19T01:36:46;100787.31;;;12.77;100.00
48630;BME280;34426;52.180;4.462;2023-11-19T01:39:17;100798.81;;;12.75;100.00
48630;BME280;34426;52.180;4.462;2023-11-19T01:41:43;100789.00;;;12.73;100.00
48630;BME280;34426;52.180;4.462;2023-11-19T01:44:09;100787.88;;;12.69;100.00
48630;BME280;34426;52.180;4.462;2023-11-19T01:46:35;100785.63;;;12.65;100.00
48630;BME280;34426;52.180;4.462;2023-11-19T01:49:03;100796.31;;;12.63;100.00
48630;BME280;34426;52.180;4.462;2023-11-19T01:51:30;100796.31;;;12.63;100.00
48630;BME280;34426;52.180;4.462;2023-11-19T01:53:57;100778.09;;;12.56;100.00
48630;BME280;34426;52.180;4.462;2023-11-19T01:56:24;100785.69;;;12.50;100.00
48630;BME280;34426;52.180;4.462;2023-11-19T01:58:51;100792.13;;;12.51;100.00
48630;BME280;34426;52.180;4.462;2023-11-19T02:01:21;100792.69;;;12.48;100.00
48630;BME280;34426;52.180;4.462;2023-11-19T02:03:47;100798.59;;;12.46;100.00
48630;BME280;34426;52.180;4.462;2023-11-19T02:06:17;100814.59;;;12.46;100.00
48630;BME280;34426;52.180;4.462;2023-11-19T02:08:43;100818.78;;;12.43;100.00
48630;BME280;34426;52.180;4.462;2023-11-19T02:11:09;100809.81;;;12.41;100.00
48630;BME280;34426;52.180;4.462;2023-11-19T02:13:40;100812.63;;;12.41;100.00
48630;BME280;34426;52.180;4.462;2023-11-19T02:16:06;100802.81;;;12.39;100.00
48630;BME280;34426;52.180;4.462;2023-11-19T02:18:32;100800.28;;;12.37;100.00
48630;BME280;34426;52.180;4.462;2023-11-19T02:20:58;100803.66;;;12.34;100.00
48630;BME280;34426;52.180;4.462;2023-11-19T02:23:33;100791.88;;;12.32;100.00
48630;BME280;34426;52.180;4.462;2023-11-19T02:26:08;100780.66;;;12.32;100.00
48630;BME280;34426;52.180;4.462;2023-11-19T02:28:37;100768.88;;;12.30;100.00
48630;BME280;34426;52.180;4.462;2023-11-19T02:31:04;100778.41;;;12.29;100.00
48630;BME280;34426;52.180;4.462;2023-11-19T02:33:30;100783.44;;;12.27;100.00
48630;BME280;34426;52.180;4.462;2023-11-19T02:35:56;100781.22;;;12.24;100.00
48630;BME280;34426;52.180;4.462;2023-11-19T02:38:22;100791.88;;;12.27;100.00
48630;BME280;34426;52.180;4.462;2023-11-19T02:40:48;100788.50;;;12.25;100.00
48630;BME280;34426;52.180;4.462;2023-11-19T02:43:14;100790.19;;;12.21;100.00
48630;BME280;34426;52.180;4.462;2023-11-19T02:45:41;100792.41;;;12.19;100.00
48630;BME280;34426;52.180;4.462;2023-11-19T02:48:12;100789.91;;;12.17;100.00
48630;BME280;34426;52.180;4.462;2023-11-19T02:50:38;100786.81;;;12.14;100.00
48630;BME280;34426;52.180;4.462;2023-11-19T02:53:06;100781.19;;;12.14;100.00
48630;BME280;34426;52.180;4.462;2023-11-19T02:55:32;100789.91;;;12.12;100.00
48630;BME280;34426;52.180;4.462;2023-11-19T02:57:57;100786.81;;;12.14;100.00
48630;BME280;34426;52.180;4.462;2023-11-19T03:00:23;100799.72;;;12.15;100.00
48630;BME280;34426;52.180;4.462;2023-11-19T03:02:55;100791.84;;;12.17;100.00
48630;BME280;34426;52.180;4.462;2023-11-19T03:05:20;100791.84;;;12.17;100.00
48630;BME280;34426;52.180;4.462;2023-11-19T03:07:46;100789.06;;;12.17;100.00
48630;BME280;34426;52.180;4.462;2023-11-19T03:10:15;100783.44;;;12.17;100.00
48630;BME280;34426;52.180;4.462;2023-11-19T03:12:40;100781.19;;;12.19;100.00
48630;BME280;34426;52.180;4.462;2023-11-19T03:15:09;100767.75;;;12.16;100.00
48630;BME280;34426;52.180;4.462;2023-11-19T03:17:36;100763.84;;;12.12;100.00
48630;BME280;34426;52.180;4.462;2023-11-19T03:20:04;100758.25;;;12.12;100.00
48630;BME280;34426;52.180;4.462;2023-11-19T03:22:30;100760.47;;;12.10;100.00
48630;BME280;34426;52.180;4.462;2023-11-19T03:24:55;100763.84;;;12.07;100.00
48630;BME280;34426;52.180;4.462;2023-11-19T03:27:21;100756.56;;;12.06;100.00
48630;BME280;34426;52.180;4.462;2023-11-19T03:29:46;100754.88;;;12.05;100.00
48630;BME280;34426;52.180;4.462;2023-11-19T03:32:12;100753.75;;;12.01;100.00
48630;BME280;34426;52.180;4.462;2023-11-19T03:34:37;100768.03;;;11.99;100.00
48630;BME280;34426;52.180;4.462;2023-11-19T03:37:07;100782.34;;;11.97;100.00
48630;BME280;34426;52.180;4.462;2023-11-19T03:39:33;100774.75;;;11.93;100.00
48630;BME280;34426;52.180;4.462;2023-11-19T03:41:58;100785.13;;;11.92;100.00
48630;BME280;34426;52.180;4.462;2023-11-19T03:44:25;100774.50;;;11.94;100.00
48630;BME280;34426;52.180;4.462;2023-11-19T03:46:51;100781.22;;;11.93;100.00
48630;BME280;34426;52.180;4.462;2023-11-19T03:49:19;100784.84;;;11.89;100.00
48630;BME280;34426;52.180;4.462;2023-11-19T03:51:48;100779.25;;;11.89;100.00
48630;BME280;34426;52.180;4.462;2023-11-19T03:54:17;100801.66;;;11.89;100.00
48630;BME280;34426;52.180;4.462;2023-11-19T03:56:43;100778.13;;;11.85;100.00
48630;BME280;34426;52.180;4.462;2023-11-19T03:59:08;100786.81;;;11.83;100.00
48630;BME280;34426;52.180;4.462;2023-11-19T04:01:36;100797.72;;;11.80;100.00
48630;BME280;34426;52.180;4.462;2023-11-19T04:04:04;100793.53;;;11.82;100.00
48630;BME280;34426;52.180;4.462;2023-11-19T04:06:29;100802.47;;;11.79;100.00
48630;BME280;34426;52.180;4.462;2023-11-19T04:08:58;100801.66;;;11.79;100.00
48630;BME280;34426;52.180;4.462;2023-11-19T04:11:27;100819.28;;;11.79;100.00
48630;BME280;34426;52.180;4.462;2023-11-19T04:13:53;100805.84;;;11.81;100.00
48630;BME280;34426;52.180;4.462;2023-11-19T04:16:19;100809.78;;;11.80;100.00
48630;BME280;34426;52.180;4.462;2023-11-19T04:18:44;100791.28;;;11.79;100.00
48630;BME280;34426;52.180;4.462;2023-11-19T04:21:13;100794.38;;;11.83;100.00
48630;BME280;34426;52.180;4.462;2023-11-19T04:23:39;100799.13;;;11.87;100.00
48630;BME280;34426;52.180;4.462;2023-11-19T04:26:07;100797.19;;;11.88;100.00
48630;BME280;34426;52.180;4.462;2023-11-19T04:28:40;100792.41;;;11.88;100.00
48630;BME280;34426;52.180;4.462;2023-11-19T04:31:06;100796.34;;;11.87;100.00
48630;BME280;34426;52.180;4.462;2023-11-19T04:33:31;100811.75;;;11.85;100.00
48630;BME280;34426;52.180;4.462;2023-11-19T04:36:01;100795.47;;;11.82;100.00
48630;BME280;34426;52.180;4.462;2023-11-19T04:38:29;100793.53;;;11.82;100.00
48630;BME280;34426;52.180;4.462;2023-11-19T04:40:54;100807.25;;;11.79;100.00
48630;BME280;34426;52.180;4.462;2023-11-19T04:43:20;100799.69;;;11.84;99.34
48630;BME280;34426;52.180;4.462;2023-11-19T04:45:49;100798.56;;;11.85;99.22
48630;BME280;34426;52.180;4.462;2023-11-19T04:48:15;100794.94;;;11.85;99.44
48630;BME280;34426;52.180;4.462;2023-11-19T04:50:41;100815.94;;;11.82;99.69
48630;BME280;34426;52.180;4.462;2023-11-19T04:53:12;100800.25;;;11.81;99.34
48630;BME280;34426;52.180;4.462;2023-11-19T04:55:41;100810.03;;;11.79;99.59
48630;BME280;34426;52.180;4.462;2023-11-19T04:58:07;100807.25;;;11.79;99.47
48630;BME280;34426;52.180;4.462;2023-11-19T05:00:32;100792.66;;;11.77;99.71
48630;BME280;34426;52.180;4.462;2023-11-19T05:03:04;100809.72;;;11.75;98.93
48630;BME280;34426;52.180;4.462;2023-11-19T05:05:30;100812.53;;;11.75;98.66
48630;BME280;34426;52.180;4.462;2023-11-19T05:07:56;100810.31;;;11.77;98.22
48630;BME280;34426;52.180;4.462;2023-11-19T05:10:22;100816.44;;;11.74;98.84
48630;BME280;34426;52.180;4.462;2023-11-19T05:12:48;100810.28;;;11.72;99.05
48630;BME280;34426;52.180;4.462;2023-11-19T05:15:13;100810.56;;;11.76;98.77
48630;BME280;34426;52.180;4.462;2023-11-19T05:17:39;100819.28;;;11.79;98.55
48630;BME280;34426;52.180;4.462;2023-11-19T05:20:16;100820.44;;;11.83;98.14
48630;BME280;34426;52.180;4.462;2023-11-19T05:22:42;100826.59;;;11.85;98.55
48630;BME280;34426;52.180;4.462;2023-11-19T05:25:08;100818.75;;;11.82;98.82
48630;BME280;34426;52.180;4.462;2023-11-19T05:27:34;100824.91;;;11.79;99.04
48630;BME280;34426;52.180;4.462;2023-11-19T05:30:04;100819.81;;;11.76;99.28
48630;BME280;34426;52.180;4.462;2023-11-19T05:32:30;100827.13;;;11.77;98.60
48630;BME280;34426;52.180;4.462;2023-11-19T05:34:55;100823.22;;;11.78;98.69
48630;BME280;34426;52.180;4.462;2023-11-19T05:37:22;100815.94;;;11.77;98.41
48630;BME280;34426;52.180;4.462;2023-11-19T05:39:50;100821.53;;;11.77;98.06
48630;BME280;34426;52.180;4.462;2023-11-19T05:42:16;100825.41;;;11.76;98.09
48630;BME280;34426;52.180;4.462;2023-11-19T05:44:42;100822.06;;;11.74;98.02
48630;BME280;34426;52.180;4.462;2023-11-19T05:47:07;100813.34;;;11.71;98.35
48630;BME280;34426;52.180;4.462;2023-11-19T05:49:33;100811.97;;;11.68;98.61
48630;BME280;34426;52.180;4.462;2023-11-19T05:52:00;100826.00;;;11.68;98.52
48630;BME280;34426;52.180;4.462;2023-11-19T05:54:27;100822.63;;;11.66;98.46
48630;BME280;34426;52.180;4.462;2023-11-19T05:56:53;100811.41;;;11.66;98.61
48630;BME280;34426;52.180;4.462;2023-11-19T05:59:19;100814.22;;;11.66;98.60
48630;BME280;34426;52.180;4.462;2023-11-19T06:01:44;100826.25;;;11.66;98.91
48630;BME280;34426;52.180;4.462;2023-11-19T06:04:10;100815.34;;;11.65;99.21
48630;BME280;34426;52.180;4.462;2023-11-19T06:06:38;100816.16;;;11.71;98.59
48630;BME280;34426;52.180;4.462;2023-11-19T06:09:04;100804.41;;;11.69;98.38
48630;BME280;34426;52.180;4.462;2023-11-19T06:11:51;100817.84;;;11.72;98.38
48630;BME280;34426;52.180;4.462;2023-11-19T06:14:17;100812.81;;;11.74;98.36
48630;BME280;34426;52.180;4.462;2023-11-19T06:16:48;100829.34;;;11.75;98.54
48630;BME280;34426;52.180;4.462;2023-11-19T06:19:14;100819.28;;;11.79;98.29
48630;BME280;34426;52.180;4.462;2023-11-19T06:21:42;100815.09;;;11.82;98.41
48630;BME280;34426;52.180;4.462;2023-11-19T06:24:08;100830.50;;;11.79;98.77
48630;BME280;34426;52.180;4.462;2023-11-19T06:26:39;100827.13;;;11.77;98.78
48630;BME280;34426;52.180;4.462;2023-11-19T06:29:05;100829.34;;;11.75;99.27
48630;BME280;34426;52.180;4.462;2023-11-19T06:31:32;100824.84;;;11.74;98.79
48630;BME280;34426;52.180;4.462;2023-11-19T06:33:58;100828.50;;;11.75;99.23
48630;BME280;34426;52.180;4.462;2023-11-19T06:36:26;100815.34;;;11.75;99.51
48630;BME280;34426;52.180;4.462;2023-11-19T06:38:52;100825.41;;;11.76;99.78
48630;BME280;34426;52.180;4.462;2023-11-19T06:41:21;100821.53;;;11.77;99.88
48630;BME280;34426;52.180;4.462;2023-11-19T06:43:48;100835.00;;;11.80;99.50
48630;BME280;34426;52.180;4.462;2023-11-19T06:46:22;100826.88;;;11.84;98.89
48630;BME280;34426;52.180;4.462;2023-11-19T06:48:47;100842.03;;;11.88;98.74
48630;BME280;34426;52.180;4.462;2023-11-19T06:51:13;100840.34;;;11.92;98.42
48630;BME280;34426;52.180;4.462;2023-11-19T06:53:38;100864.47;;;11.93;98.25
48630;BME280;34426;52.180;4.462;2023-11-19T06:56:10;100839.81;;;12.00;97.62
48630;BME280;34426;52.180;4.462;2023-11-19T06:58:45;100834.75;;;12.02;97.21
48630;BME280;34426;52.180;4.462;2023-11-19T07:01:12;100849.34;;;12.04;97.37
48630;BME280;34426;52.180;4.462;2023-11-19T07:03:38;100840.66;;;12.06;96.53
48630;BME280;34426;52.180;4.462;2023-11-19T07:06:07;100842.34;;;12.07;96.96
48630;BME280;34426;52.180;4.462;2023-11-19T07:08:32;100846.84;;;12.08;96.98
48630;BME280;34426;52.180;4.462;2023-11-19T07:10:58;100845.72;;;12.09;96.52
48630;BME280;34426;52.180;4.462;2023-11-19T07:13:23;100822.72;;;12.07;96.09
48630;BME280;34426;52.180;4.462;2023-11-19T07:15:49;100851.31;;;12.04;95.77
48630;BME280;34426;52.180;4.462;2023-11-19T07:18:16;100845.13;;;12.02;95.74
48630;BME280;34426;52.180;4.462;2023-11-19T07:20:42;100840.09;;;11.98;95.40
48630;BME280;34426;52.180;4.462;2023-11-19T07:23:07;100851.28;;;11.93;96.08
48630;BME280;34426;52.180;4.462;2023-11-19T07:25:33;100844.84;;;11.93;96.11
48630;BME280;34426;52.180;4.462;2023-11-19T07:27:59;100842.88;;;11.93;96.29
48630;BME280;34426;52.180;4.462;2023-11-19T07:30:24;100843.44;;;11.90;96.67
48630;BME280;34426;52.180;4.462;2023-11-19T07:32:50;100844.28;;;11.91;96.28
48630;BME280;34426;52.180;4.462;2023-11-19T07:35:17;100839.78;;;11.90;97.06
48630;BME280;34426;52.180;4.462;2023-11-19T07:37:42;100845.13;;;11.91;97.43
48630;BME280;34426;52.180;4.462;2023-11-19T07:40:09;100850.16;;;11.94;97.22
48630;BME280;34426;52.180;4.462;2023-11-19T07:42:34;100850.19;;;11.99;96.79
48630;BME280;34426;52.180;4.462;2023-11-19T07:45:00;100845.44;;;12.05;95.82
48630;BME280;34426;52.180;4.462;2023-11-19T07:47:26;100844.59;;;12.10;95.99
48630;BME280;34426;52.180;4.462;2023-11-19T07:49:52;100837.28;;;12.14;95.80
48630;BME280;34426;52.180;4.462;2023-11-19T07:52:19;100866.44;;;12.18;95.92
48630;BME280;34426;52.180;4.462;2023-11-19T07:54:44;100849.91;;;12.21;95.57
48630;BME280;34426;52.180;4.462;2023-11-19T07:57:11;100834.78;;;12.27;95.19
48630;BME280;34426;52.180;4.462;2023-11-19T07:59:40;100852.44;;;12.28;95.00
48630;BME280;34426;52.180;4.462;2023-11-19T08:02:06;100853.28;;;12.23;95.44
48630;BME280;34426;52.180;4.462;2023-11-19T08:04:32;100850.19;;;12.15;95.56
48630;BME280;34426;52.180;4.462;2023-11-19T08:06:57;100850.75;;;12.12;96.25
48630;BME280;34426;52.180;4.462;2023-11-19T08:09:24;100860.84;;;12.08;96.04
48630;BME280;34426;52.180;4.462;2023-11-19T08:11:50;100860.84;;;12.08;95.48
48630;BME280;34426;52.180;4.462;2023-11-19T08:14:15;100854.69;;;12.11;95.48
48630;BME280;34426;52.180;4.462;2023-11-19T08:16:47;100856.34;;;12.17;94.79
48630;BME280;34426;52.180;4.462;2023-11-19T08:19:13;100860.56;;;12.24;94.12
48630;BME280;34426;52.180;4.462;2023-11-19T08:21:40;100837.03;;;12.30;93.99
48630;BME280;34426;52.180;4.462;2023-11-19T08:24:09;100846.28;;;12.36;94.57
48630;BME280;34426;52.180;4.462;2023-11-19T08:26:36;100849.66;;;12.38;94.29
48630;BME280;34426;52.180;4.462;2023-11-19T08:29:01;100864.25;;;12.40;94.54
48630;BME280;34426;52.180;4.462;2023-11-19T08:31:27;100843.75;;;12.45;94.76
48630;BME280;34426;52.180;4.462;2023-11-19T08:33:59;100837.88;;;12.51;94.53
48630;BME280;34426;52.180;4.462;2023-11-19T08:36:25;100845.72;;;12.54;93.99
48630;BME280;34426;52.180;4.462;2023-11-19T08:38:50;100853.03;;;12.55;93.78
48630;BME280;34426;52.180;4.462;2023-11-19T08:41:16;100852.16;;;12.60;93.47
48630;BME280;34426;52.180;4.462;2023-11-19T08:43:43;100858.59;;;12.60;93.40
48630;BME280;34426;52.180;4.462;2023-11-19T08:46:11;100835.59;;;12.63;93.49
48630;BME280;34426;52.180;4.462;2023-11-19T08:48:37;100858.03;;;12.69;93.47
48630;BME280;34426;52.180;4.462;2023-11-19T08:51:03;100855.22;;;12.69;93.52
48630;BME280;34426;52.180;4.462;2023-11-19T08:53:29;100857.19;;;12.68;93.56
48630;BME280;34426;52.180;4.462;2023-11-19T08:55:55;100851.59;;;12.68;93.19
48630;BME280;34426;52.180;4.462;2023-11-19T08:58:20;100847.38;;;12.71;93.73
48630;BME280;34426;52.180;4.462;2023-11-19T09:00:47;100843.44;;;12.72;94.09
48630;BME280;34426;52.180;4.462;2023-11-19T09:03:15;100840.06;;;12.70;94.13
48630;BME280;34426;52.180;4.462;2023-11-19T09:05:41;100840.06;;;12.75;93.27
48630;BME280;34426;52.180;4.462;2023-11-19T09:08:06;100850.47;;;12.79;93.12
48630;BME280;34426;52.180;4.462;2023-11-19T09:10:32;100848.78;;;12.78;92.61
48630;BME280;34426;52.180;4.462;2023-11-19T09:12:58;100843.16;;;12.78;92.32
48630;BME280;34426;52.180;4.462;2023-11-19T09:15:23;100840.63;;;12.82;92.30
48630;BME280;34426;52.180;4.462;2023-11-19T09:17:50;100829.13;;;12.83;92.34
48630;BME280;34426;52.180;4.462;2023-11-19T09:20:16;100837.53;;;12.88;92.41
48630;BME280;34426;52.180;4.462;2023-11-19T09:22:41;100829.38;;;12.92;91.77
48630;BME280;34426;52.180;4.462;2023-11-19T09:25:07;100830.50;;;12.91;92.29
48630;BME280;34426;52.180;4.462;2023-11-19T09:27:33;100835.00;;;12.92;91.94
48630;BME280;34426;52.180;4.462;2023-11-19T09:30:11;100836.41;;;12.94;91.73
48630;BME280;34426;52.180;4.462;2023-11-19T09:32:37;100839.50;;;12.93;91.81
48630;BME280;34426;52.180;4.462;2023-11-19T09:35:05;100852.13;;;12.95;91.54
48630;BME280;34426;52.180;4.462;2023-11-19T09:37:30;100847.88;;;13.03;91.73
48630;BME280;34426;52.180;4.462;2023-11-19T09:39:56;100838.56;;;13.13;91.38
48630;BME280;34426;52.180;4.462;2023-11-19T09:42:24;100848.69;;;13.19;90.97
48630;BME280;34426;52.180;4.462;2023-11-19T09:44:50;100853.75;;;13.22;90.14
48630;BME280;34426;52.180;4.462;2023-11-19T09:47:19;100853.47;;;13.23;89.84
48630;BME280;34426;52.180;4.462;2023-11-19T09:49:44;100842.78;;;13.25;89.64
48630;BME280;34426;52.180;4.462;2023-11-19T09:52:15;100841.34;;;13.38;89.67
48630;BME280;34426;52.180;4.462;2023-11-19T09:54:40;100851.94;;;13.51;88.46
48630;BME280;34426;52.180;4.462;2023-11-19T09:57:06;100848.31;;;13.46;86.65
48630;BME280;34426;52.180;4.462;2023-11-19T09:59:33;100852.03;;;13.36;87.83
48630;BME280;34426;52.180;4.462;2023-11-19T10:01:59;100875.94;;;13.08;91.90
48630;BME280;34426;52.180;4.462;2023-11-19T10:04:29;100847.94;;;12.83;95.39
48630;BME280;34426;52.180;4.462;2023-11-19T10:06:58;100845.69;;;12.59;97.19
48630;BME280;34426;52.180;4.462;2023-11-19T10:09:25;100850.50;;;12.49;98.24
48630;BME280;34426;52.180;4.462;2023-11-19T10:11:51;100849.66;;;12.43;97.90
48630;BME280;34426;52.180;4.462;2023-11-19T10:14:24;100836.75;;;12.47;98.13
48630;BME280;34426;52.180;4.462;2023-11-19T10:16:50;100837.03;;;12.51;95.73
48630;BME280;34426;52.180;4.462;2023-11-19T10:19:19;100840.66;;;12.56;95.20
48630;BME280;34426;52.180;4.462;2023-11-19T10:21:45;100826.88;;;12.65;93.60
48630;BME280;34426;52.180;4.462;2023-11-19T10:24:11;100833.34;;;12.76;93.47
48630;BME280;34426;52.180;4.462;2023-11-19T10:26:40;100826.03;;;12.90;92.86
48630;BME280;34426;52.180;4.462;2023-11-19T10:29:06;100812.78;;;13.00;92.05
48630;BME280;34426;52.180;4.462;2023-11-19T10:31:31;100821.47;;;13.04;90.30
48630;BME280;34426;52.180;4.462;2023-11-19T10:33:57;100821.16;;;13.11;89.35
48630;BME280;34426;52.180;4.462;2023-11-19T10:36:23;100825.09;;;13.15;89.20
48630;BME280;34426;52.180;4.462;2023-11-19T10:39:02;100827.06;;;13.19;89.27
48630;BME280;34426;52.180;4.462;2023-11-19T10:41:28;100822.00;;;13.21;88.37
48630;BME280;34426;52.180;4.462;2023-11-19T10:43:55;100810.50;;;13.23;88.82
48630;BME280;34426;52.180;4.462;2023-11-19T10:46:21;100821.16;;;13.21;88.31
48630;BME280;34426;52.180;4.462;2023-11-19T10:48:47;100836.59;;;13.28;89.17
48630;BME280;34426;52.180;4.462;2023-11-19T10:51:14;100833.22;;;13.26;88.33
48630;BME280;34426;52.180;4.462;2023-11-19T10:53:45;100824.53;;;13.28;88.12
48630;BME280;34426;52.180;4.462;2023-11-19T10:56:11;100843.06;;;13.29;87.82
48630;BME280;34426;52.180;4.462;2023-11-19T10:58:44;100829.75;;;13.45;87.84
48630;BME280;34426;52.180;4.462;2023-11-19T11:01:16;100825.78;;;13.56;87.17
48630;BME280;34426;52.180;4.462;2023-11-19T11:03:47;100819.03;;;13.57;86.30
48630;BME280;34426;52.180;4.462;2023-11-19T11:06:15;100829.16;;;13.58;85.81
48630;BME280;34426;52.180;4.462;2023-11-19T11:08:43;100828.56;;;13.61;84.99
48630;BME280;34426;52.180;4.462;2023-11-19T11:11:11;100836.44;;;13.59;85.31
48630;BME280;34426;52.180;4.462;2023-11-19T11:13:45;100819.06;;;13.52;84.63
48630;BME280;34426;52.180;4.462;2023-11-19T11:16:18;100814.00;;;13.49;84.32
48630;BME280;34426;52.180;4.462;2023-11-19T11:18:50;100814.00;;;13.49;84.76
48630;BME280;34426;52.180;4.462;2023-11-19T11:21:17;100824.94;;;13.55;84.62
48630;BME280;34426;52.180;4.462;2023-11-19T11:24:23;100811.72;;;13.56;84.10
48630;BME280;34426;52.180;4.462;2023-11-19T11:29:47;100812.84;;;13.60;84.64
48630;BME280;34426;52.180;4.462;2023-11-19T11:32:32;100816.22;;;13.57;84.23
48630;BME280;34426;52.180;4.462;2023-11-19T11:35:11;100802.19;;;13.52;83.98
48630;BME280;34426;52.180;4.462;2023-11-19T11:37:49;100808.13;;;13.45;83.92
48630;BME280;34426;52.180;4.462;2023-11-19T11:40:17;100815.91;;;13.63;83.48
48630;BME280;34426;52.180;4.462;2023-11-19T11:42:43;100799.41;;;13.91;83.41
48630;BME280;34426;52.180;4.462;2023-11-19T11:45:09;100797.72;;;13.95;82.78
48630;BME280;34426;52.180;4.462;2023-11-19T11:48:08;100804.78;;;13.87;83.22
48630;BME280;34426;52.180;4.462;2023-11-19T11:50:34;100797.00;;;13.79;83.10
48630;BME280;34426;52.180;4.462;2023-11-19T11:53:13;100778.47;;;13.73;84.07
48630;BME280;34426;52.180;4.462;2023-11-19T11:55:53;100793.38;;;13.74;83.89
48630;BME280;34426;52.180;4.462;2023-11-19T11:58:21;100777.34;;;13.74;83.97
48630;BME280;34426;52.180;4.462;2023-11-19T12:00:51;100781.88;;;13.70;84.13
48630;BME280;34426;52.180;4.462;2023-11-19T12:03:22;100781.91;;;13.65;84.27
48630;BME280;34426;52.180;4.462;2023-11-19T12:05:48;100784.75;;;13.55;84.23
48630;BME280;34426;52.180;4.462;2023-11-19T12:08:14;100788.38;;;13.60;84.59
48630;BME280;34426;52.180;4.462;2023-11-19T12:10:44;100800.19;;;13.57;84.61
48630;BME280;34426;52.180;4.462;2023-11-19T12:13:20;100777.47;;;13.54;83.80
48630;BME280;34426;52.180;4.462;2023-11-19T12:16:07;100787.53;;;13.60;84.15
48630;BME280;34426;52.180;4.462;2023-11-19T12:18:34;100777.41;;;13.64;83.39
48630;BME280;34426;52.180;4.462;2023-11-19T12:21:00;100797.09;;;13.59;83.87
48630;BME280;34426;52.180;4.462;2023-11-19T12:23:27;100787.34;;;13.46;84.91
48630;BME280;34426;52.180;4.462;2023-11-19T12:25:54;100807.28;;;13.45;84.94
48630;BME280;34426;52.180;4.462;2023-11-19T12:28:29;100794.13;;;13.40;85.84
48630;BME280;34426;52.180;4.462;2023-11-19T12:31:07;100782.63;;;13.37;86.42
48630;BME280;34426;52.180;4.462;2023-11-19T12:33:37;100795.56;;;13.32;86.72
48630;BME280;34426;52.180;4.462;2023-11-19T12:36:03;100790.25;;;13.31;88.50
48630;BME280;34426;52.180;4.462;2023-11-19T12:38:32;100788.03;;;13.18;89.73
48630;BME280;34426;52.180;4.462;2023-11-19T12:41:04;100797.31;;;13.08;90.44
48630;BME280;34426;52.180;4.462;2023-11-19T12:43:30;100790.00;;;13.07;89.98
48630;BME280;34426;52.180;4.462;2023-11-19T12:45:56;100793.38;;;13.09;89.96
48630;BME280;34426;52.180;4.462;2023-11-19T12:48:22;100790.28;;;13.11;89.72
48630;BME280;34426;52.180;4.462;2023-11-19T12:50:53;100785.75;;;13.25;89.52